»·PEaware :: N124BA L52-L52

N124BA :: L52-L52

FLIGHT INFORMATION

Flight Status: Arrived
Operator: Privately registered:
United States
More flights under this callsign
Pilot: Michael M. (17510)
Aircraft: CESSNA 172 SKYHAWK
(C172)
More flights by this aircraft type
Origin: L52 Oceano Co
United States
Destination: L52 Oceano Co
United States
More flights between these airports :: More routes between these airports
Route:
File this flight plan on PilotEdge
Remarks: Local VFR
Altitude:
(Current/Filed)
2,500ft
Speed:
(Current/Filed)
115kts
Departed: 09-Dec-17 01:57 PM
Arrived: 09-Dec-17 03:08 PM
Distance/Time
Traveled:
0nm/1:11
Distance/Time
To Go:
Arrived

Flight Plot

Page will automatically refresh every two minutes.


Map Options




Map Legend


Flown Route
Filed Route
Departure Airport
Arrival Airport
Navaid (VOR, NDB)
Fix

Horizontal Profiles

Position Reports

Time Latitude Longitude Heading Altitude Ground
Speed
09-Dec-17 13:56 35.102275 -120.622530 210 17ft 0kts
09-Dec-17 13:57 35.102275 -120.622530 210 17ft 0kts
09-Dec-17 13:58 35.101997 -120.622179 138 17ft 5kts
09-Dec-17 13:59 35.100988 -120.622218 122 17ft 1kts
09-Dec-17 14:00 35.099445 -120.619525 105 17ft 0kts
09-Dec-17 14:00 35.099449 -120.619496 57 17ft 0kts
09-Dec-17 14:02 35.099855 -120.619243 342 17ft 4kts
09-Dec-17 14:02 35.105105 -120.629411 296 192ft 83kts
09-Dec-17 14:03 35.110999 -120.658770 282 922ft 103kts
09-Dec-17 14:05 35.131411 -120.658384 92 1692ft 103kts
09-Dec-17 14:05 35.127489 -120.629918 99 2271ft 101kts
09-Dec-17 14:06 35.122473 -120.596888 99 2809ft 105kts
09-Dec-17 14:07 35.116376 -120.557301 99 2510ft 104kts
09-Dec-17 14:08 35.111450 -120.525824 99 2513ft 89kts
09-Dec-17 14:09 35.102096 -120.501272 151 2514ft 86kts
09-Dec-17 14:10 35.080787 -120.488249 152 2516ft 86kts
09-Dec-17 14:11 35.059307 -120.475149 152 2518ft 86kts
09-Dec-17 14:12 35.037740 -120.461979 152 2519ft 87kts
09-Dec-17 14:13 35.019126 -120.467174 269 2515ft 83kts
09-Dec-17 14:14 35.026851 -120.493293 293 2519ft 82kts
09-Dec-17 14:15 35.035620 -120.519410 293 2511ft 83kts
09-Dec-17 14:16 35.049766 -120.537475 17 2501ft 83kts
09-Dec-17 14:17 35.051439 -120.513225 134 2504ft 86kts
09-Dec-17 14:18 35.035629 -120.489851 124 2481ft 91kts
09-Dec-17 14:19 35.021012 -120.464587 124 2481ft 92kts
09-Dec-17 14:20 35.015780 -120.435876 81 2481ft 90kts
09-Dec-17 14:21 35.017931 -120.405377 93 2479ft 91kts
09-Dec-17 14:22 35.002882 -120.380582 130 2481ft 92kts
09-Dec-17 14:23 34.986123 -120.356858 130 2481ft 92kts
09-Dec-17 14:24 34.967565 -120.335659 147 2480ft 92kts
09-Dec-17 14:25 34.946523 -120.318047 147 2481ft 92kts
09-Dec-17 14:26 34.925559 -120.300488 147 2480ft 92kts
09-Dec-17 14:27 34.913738 -120.275708 112 2476ft 92kts
09-Dec-17 14:28 34.896758 -120.278665 276 2474ft 76kts
09-Dec-17 14:29 34.911852 -120.295401 323 2479ft 76kts
09-Dec-17 14:30 34.929297 -120.310398 323 2479ft 77kts
09-Dec-17 14:31 34.946770 -120.325443 323 2479ft 77kts
09-Dec-17 14:32 34.964306 -120.340561 323 2479ft 77kts
09-Dec-17 14:33 34.981823 -120.355678 323 2479ft 77kts
09-Dec-17 14:34 34.999298 -120.370780 323 2479ft 77kts
09-Dec-17 14:35 35.010732 -120.392504 298 2479ft 77kts
09-Dec-17 14:36 35.020554 -120.415695 298 2479ft 77kts
09-Dec-17 14:37 35.030356 -120.438839 298 2479ft 77kts
09-Dec-17 14:38 35.040301 -120.462294 298 2371ft 82kts
09-Dec-17 14:39 35.051264 -120.487767 298 1864ft 86kts
09-Dec-17 14:40 35.062384 -120.514054 298 1295ft 92kts
09-Dec-17 14:41 35.073276 -120.540516 298 953ft 74kts
09-Dec-17 14:42 35.079479 -120.563386 259 823ft 75kts
09-Dec-17 14:43 35.083368 -120.584812 273 966ft 82kts
09-Dec-17 14:44 35.091240 -120.609072 299 957ft 70kts
09-Dec-17 14:45 35.096503 -120.631949 240 957ft 77kts
09-Dec-17 14:46 35.077679 -120.633196 140 956ft 77kts
09-Dec-17 14:47 35.082954 -120.615072 24 746ft 68kts
09-Dec-17 14:48 35.098120 -120.616889 302 99ft 55kts
09-Dec-17 14:49 35.099336 -120.635405 268 513ft 63kts
09-Dec-17 14:50 35.095171 -120.653906 193 1225ft 81kts
09-Dec-17 14:51 35.073141 -120.666521 189 1700ft 101kts
09-Dec-17 14:52 35.045214 -120.663979 165 1787ft 102kts
09-Dec-17 14:53 35.021843 -120.647571 97 1463ft 106kts
09-Dec-17 14:54 35.021307 -120.617553 76 1533ft 87kts
09-Dec-17 15:13 35.102275 -120.622530 210 17ft 0kts
09-Dec-17 15:14 35.102275 -120.622530 210 17ft 0kts
09-Dec-17 15:15 35.102275 -120.622530 210 17ft 0kts
09-Dec-17 15:16 35.102275 -120.622530 210 17ft 0kts
09-Dec-17 15:17 35.102275 -120.622530 210 17ft 0kts
09-Dec-17 15:18 35.102275 -120.622530 210 17ft 0kts

Navigation Log

Ident Type
Flight plan parsing failed, navigation log unavailable